Time;durP1;ratioP1;P1;durP2;ratioP2;P2;SDS_P1;SDS_P2;PMS_P1;PMS_P2;Temp;Humidity;BMP_temperature;BMP_pressure;BME280_temperature;BME280_humidity;BME280_pressure;Samples;Min_cycle;Max_cycle;Signal;HPM_P1;HPM_P2
2024/02/29 00:04:42;;;;;;;18.42;5.05;;;;;;;3.07;63.53;100262.22;10488826;28;20353;-58
2024/02/29 00:09:45;;;;;;;9.05;4.45;;;;;;;3.02;63.68;100258.91;10503914;28;20489;-59
2024/02/29 00:14:47;;;;;;;14.45;4.30;;;;;;;3.02;63.76;100263.22;10506880;28;20051;-56
2024/02/29 00:19:49;;;;;;;9.95;4.38;;;;;;;2.99;63.81;100258.97;10505978;28;20044;-58
2024/02/29 00:24:51;;;;;;;8.05;3.97;;;;;;;2.96;63.46;100253.03;10488294;28;20043;-58
2024/02/29 00:29:53;;;;;;;10.43;4.82;;;;;;;2.86;63.56;100241.22;10505711;28;20745;-56
2024/02/29 00:34:56;;;;;;;11.23;4.72;;;;;;;2.78;63.56;100259.50;10485350;28;20051;-56
2024/02/29 00:39:58;;;;;;;11.27;4.32;;;;;;;2.66;63.61;100248.59;10480855;28;20048;-58
2024/02/29 00:45:01;;;;;;;9.75;5.13;;;;;;;2.63;63.72;100248.66;10499475;28;20523;-57
2024/02/29 00:50:03;;;;;;;10.13;5.20;;;;;;;2.49;63.80;100246.38;10493961;28;20044;-57
2024/02/29 00:55:07;;;;;;;11.68;5.78;;;;;;;2.46;63.88;100246.44;10533508;27;20433;-56
2024/02/29 01:00:11;;;;;;;14.38;5.75;;;;;;;2.44;63.93;100248.19;10518107;28;20113;-59
2024/02/29 01:05:15;;;;;;;10.05;4.47;;;;;;;2.38;63.94;100237.19;10517351;28;20048;-58
2024/02/29 01:10:17;;;;;;;10.35;5.00;;;;;;;2.35;63.91;100235.50;10517304;28;20426;-57
2024/02/29 01:15:19;;;;;;;10.30;4.45;;;;;;;2.30;63.64;100234.75;10516492;28;20040;-57
2024/02/29 01:20:21;;;;;;;8.85;4.03;;;;;;;2.21;63.78;100222.06;10517852;28;20056;-59
2024/02/29 01:25:23;;;;;;;11.18;3.55;;;;;;;2.16;63.61;100216.13;10497376;28;20400;-58
2024/02/29 01:30:26;;;;;;;10.82;4.15;;;;;;;1.91;64.28;100212.38;10482831;28;20044;-57
2024/02/29 01:35:28;;;;;;;8.68;4.25;;;;;;;1.84;64.47;100208.22;10515103;28;20048;-58
2024/02/29 01:40:30;;;;;;;8.48;3.72;;;;;;;1.88;64.06;100202.13;10495533;28;20109;-59
2024/02/29 01:45:32;;;;;;;8.50;3.70;;;;;;;1.83;63.94;100203.91;10514492;28;20076;-59
2024/02/29 01:50:37;;;;;;;9.38;4.03;;;;;;;1.84;63.80;100198.75;10515679;28;20132;-57
2024/02/29 01:55:39;;;;;;;7.15;3.60;;;;;;;1.79;63.76;100189.38;10480591;28;20079;-58
2024/02/29 02:00:41;;;;;;;45.65;4.45;;;;;;;1.72;63.90;100192.97;10481356;28;20051;-58
2024/02/29 02:05:43;;;;;;;21.60;4.05;;;;;;;1.67;63.90;100194.78;10496160;28;20055;-57
2024/02/29 02:10:45;;;;;;;7.43;3.08;;;;;;;1.54;64.10;100185.63;10471106;28;20311;-59
2024/02/29 02:15:48;;;;;;;12.70;3.92;;;;;;;1.51;64.18;100188.22;10471407;28;20075;-58
2024/02/29 02:20:53;;;;;;;5.13;2.92;;;;;;;1.46;64.18;100175.47;10472903;28;20127;-59
2024/02/29 02:25:58;;;;;;;69.18;3.97;;;;;;;1.36;64.24;100174.75;10472878;28;20432;-58
2024/02/29 02:31:00;;;;;;;10.98;3.90;;;;;;;1.36;64.27;100161.88;10473123;28;20040;-59
2024/02/29 02:36:03;;;;;;;23.85;3.50;;;;;;;1.34;64.27;100163.63;10470562;28;20049;-59
2024/02/29 02:41:05;;;;;;;24.15;3.75;;;;;;;1.33;64.35;100143.06;10472110;28;20048;-57
2024/02/29 02:46:08;;;;;;;11.73;2.78;;;;;;;1.29;64.22;100139.69;10470259;28;20040;-58
2024/02/29 02:51:10;;;;;;;79.07;4.78;;;;;;;1.24;64.45;100123.47;10471157;28;20051;-57
2024/02/29 02:56:12;;;;;;;40.75;4.55;;;;;;;1.22;64.42;100120.06;10470904;28;20455;-56
2024/02/29 03:01:14;;;;;;;6.43;2.42;;;;;;;1.19;64.32;100119.28;10472613;28;20060;-59
2024/02/29 03:06:16;;;;;;;16.10;2.80;;;;;;;1.16;64.42;100120.19;10470830;28;20052;-59
2024/02/29 03:11:18;;;;;;;11.18;3.45;;;;;;;1.06;64.68;100113.50;10470086;28;20451;-58
2024/02/29 03:16:24;;;;;;;7.32;2.95;;;;;;;1.08;64.81;100109.19;10469520;28;20154;-58
2024/02/29 03:21:28;;;;;;;40.97;3.47;;;;;;;1.06;64.63;100095.47;10469684;28;20044;-59
2024/02/29 03:26:30;;;;;;;8.75;2.75;;;;;;;0.97;64.66;100100.78;10470461;28;20058;-57
2024/02/29 03:31:32;;;;;;;6.95;2.40;;;;;;;1.07;64.81;100094.63;10469924;28;20084;-58
2024/02/29 03:36:34;;;;;;;5.07;2.38;;;;;;;1.01;64.64;100102.47;10470093;28;20068;-59
2024/02/29 03:41:36;;;;;;;19.85;3.45;;;;;;;1.00;64.95;100099.88;10468154;28;20045;-57
2024/02/29 03:46:38;;;;;;;8.93;2.80;;;;;;;1.03;64.66;100103.28;10452745;28;20044;-57
2024/02/29 03:51:40;;;;;;;9.40;3.00;;;;;;;1.11;64.76;100101.41;10468873;28;20123;-58
2024/02/29 03:56:42;;;;;;;9.90;2.22;;;;;;;1.08;64.67;100093.72;10467012;28;20041;-58
2024/02/29 04:01:48;;;;;;;10.82;2.70;;;;;;;1.05;64.74;100087.78;10470083;28;20127;-58
2024/02/29 04:06:51;;;;;;;28.38;3.38;;;;;;;0.93;64.66;100085.44;10450139;28;20167;-57
2024/02/29 04:11:53;;;;;;;5.15;3.00;;;;;;;0.91;64.98;100082.88;10509401;28;20074;-58
2024/02/29 04:16:55;;;;;;;11.93;3.22;;;;;;;0.90;65.01;100077.75;10509763;28;20044;-57
2024/02/29 04:21:58;;;;;;;6.82;2.75;;;;;;;1.00;64.87;100071.56;10511450;28;20056;-58
2024/02/29 04:27:00;;;;;;;6.35;2.58;;;;;;;0.99;64.77;100065.56;10507916;28;20145;-57
2024/02/29 04:32:02;;;;;;;58.85;3.72;;;;;;;1.04;64.88;100062.91;10511109;28;20044;-57
2024/02/29 04:37:04;;;;;;;17.83;3.75;;;;;;;1.06;64.74;100050.84;10492190;28;20414;-57
2024/02/29 04:42:07;;;;;;;13.65;3.38;;;;;;;1.01;64.74;100047.53;10526308;28;20066;-58
2024/02/29 04:47:09;;;;;;;33.17;3.60;;;;;;;0.98;65.09;100037.28;10508895;28;20067;-55
2024/02/29 04:52:11;;;;;;;10.57;3.72;;;;;;;0.93;64.85;100039.09;10510170;28;21040;-56
2024/02/29 04:57:13;;;;;;;22.58;3.42;;;;;;;0.83;64.91;100027.28;10491824;28;20056;-56
2024/02/29 05:02:16;;;;;;;33.90;2.78;;;;;;;0.84;64.80;100022.09;10510187;28;20622;-58
2024/02/29 05:07:18;;;;;;;6.60;2.55;;;;;;;0.83;64.83;100019.56;10491681;28;20526;-58
2024/02/29 05:12:22;;;;;;;22.80;4.13;;;;;;;0.72;65.00;100024.03;10509845;28;20036;-56
2024/02/29 05:17:24;;;;;;;14.57;4.05;;;;;;;0.79;65.01;100012.78;10508686;28;20043;-57
2024/02/29 05:22:26;;;;;;;8.95;2.50;;;;;;;0.81;64.89;100011.03;10508906;28;20039;-58
2024/02/29 05:27:29;;;;;;;20.02;3.90;;;;;;;0.86;64.92;99999.75;10490897;28;20076;-58
2024/02/29 05:32:32;;;;;;;13.35;3.70;;;;;;;0.77;64.98;100007.63;10508126;28;20421;-57
2024/02/29 05:37:36;;;;;;;6.75;2.97;;;;;;;0.85;65.18;100000.59;10510399;28;20044;-58
2024/02/29 05:42:38;;;;;;;68.45;5.88;;;;;;;0.77;65.01;100005.06;10516983;28;20127;-57
2024/02/29 05:47:40;;;;;;;25.58;4.78;;;;;;;0.78;65.14;100003.34;10498618;28;20515;-58
2024/02/29 05:52:42;;;;;;;14.18;4.22;;;;;;;0.82;65.09;100003.25;10517144;28;20039;-57
2024/02/29 05:57:44;;;;;;;8.40;3.38;;;;;;;0.87;65.10;99992.88;10514511;28;20559;-59
2024/02/29 06:02:47;;;;;;;12.52;3.40;;;;;;;0.98;65.19;99993.50;10516186;28;20381;-58
2024/02/29 06:07:53;;;;;;;12.15;3.33;;;;;;;1.03;64.77;100002.84;10514358;28;20234;-57
2024/02/29 06:12:55;;;;;;;15.38;4.80;;;;;;;0.95;65.03;99994.41;10515605;28;20063;-57
2024/02/29 06:17:57;;;;;;;8.45;3.70;;;;;;;0.94;65.25;99989.28;10514031;28;20283;-57
2024/02/29 06:23:00;;;;;;;16.13;3.50;;;;;;;1.05;64.96;99988.22;10514534;28;20254;-57
2024/02/29 06:28:02;;;;;;;10.07;3.40;;;;;;;1.09;64.76;99991.56;10497892;28;20063;-57
2024/02/29 06:33:04;;;;;;;25.30;5.50;;;;;;;1.10;64.88;99991.53;10482577;28;20032;-58
2024/02/29 06:38:06;;;;;;;19.30;3.33;;;;;;;1.19;64.74;99995.66;10514657;28;20040;-57
2024/02/29 06:43:09;;;;;;;42.05;3.53;;;;;;;1.25;64.60;99996.38;10495948;28;20048;-57
2024/02/29 06:48:11;;;;;;;7.78;3.75;;;;;;;1.16;64.74;99993.97;10512410;28;20048;-56
2024/02/29 06:53:13;;;;;;;7.80;3.15;;;;;;;1.21;64.72;99994.75;10515290;28;20102;-57
2024/02/29 06:58:15;;;;;;;14.63;4.78;;;;;;;1.22;64.50;99986.13;10496069;28;20295;-57
2024/02/29 07:03:18;;;;;;;11.75;3.38;;;;;;;1.24;64.46;99981.78;10496194;28;20384;-56
2024/02/29 07:08:20;;;;;;;36.33;5.47;;;;;;;1.43;64.22;99983.97;10512418;28;20732;-57
2024/02/29 07:13:22;;;;;;;14.18;3.58;;;;;;;1.53;63.96;99976.00;10495228;28;20520;-55
2024/02/29 07:18:24;;;;;;;9.70;3.70;;;;;;;1.51;63.87;99957.13;10512550;28;20135;-57
2024/02/29 07:23:26;;;;;;;8.85;3.65;;;;;;;1.58;63.68;99960.44;10493855;28;20401;-57
2024/02/29 07:28:28;;;;;;;11.40;4.07;;;;;;;1.74;64.21;99960.03;10493308;28;20468;-57
2024/02/29 07:33:31;;;;;;;6.55;3.53;;;;;;;1.84;64.26;99951.22;10494301;28;20076;-57
2024/02/29 07:38:33;;;;;;;50.03;4.38;;;;;;;1.79;63.52;99944.44;10511591;28;20141;-58
2024/02/29 07:43:35;;;;;;;6.93;3.47;;;;;;;1.94;63.89;99941.50;10511861;28;20130;-57
2024/02/29 07:48:37;;;;;;;16.52;3.40;;;;;;;2.06;63.70;99944.63;10510160;28;20562;-57
2024/02/29 07:53:40;;;;;;;18.90;4.78;;;;;;;2.29;63.37;99936.31;10511929;28;20518;-56
2024/02/29 07:58:42;;;;;;;17.63;4.20;;;;;;;2.32;63.19;99937.97;10510766;28;20467;-56
2024/02/29 08:03:44;;;;;;;24.65;5.95;;;;;;;2.09;62.99;99933.41;10494096;28;20146;-57
2024/02/29 08:08:46;;;;;;;17.73;4.43;;;;;;;2.32;62.98;99938.78;10509484;28;20060;-55
2024/02/29 08:13:48;;;;;;;14.32;4.60;;;;;;;2.33;63.03;99919.84;10511125;28;20125;-57
2024/02/29 08:18:50;;;;;;;22.90;4.60;;;;;;;2.41;62.87;99922.22;10508428;28;20044;-57
2024/02/29 08:23:52;;;;;;;10.60;5.20;;;;;;;2.70;62.95;99915.34;10510709;28;20279;-58
2024/02/29 08:28:54;;;;;;;93.90;7.28;;;;;;;3.14;62.70;99915.81;10507275;28;20120;-56
2024/02/29 08:33:56;;;;;;;8.65;5.15;;;;;;;3.27;61.43;99907.66;10506233;28;20515;-56
2024/02/29 08:38:59;;;;;;;16.63;5.40;;;;;;;3.28;62.15;99898.16;10509078;28;20151;-57
2024/02/29 08:44:03;;;;;;;14.40;5.07;;;;;;;3.58;61.84;99892.03;10491677;28;20157;-57
2024/02/29 08:49:07;;;;;;;54.50;5.78;;;;;;;3.68;61.47;99898.63;10508876;28;20074;-56
2024/02/29 08:54:09;;;;;;;63.58;6.38;;;;;;;3.34;61.52;99891.06;10508422;28;20043;-57
2024/02/29 08:59:11;;;;;;;85.35;6.60;;;;;;;3.23;62.29;99887.13;10489629;28;20048;-57
2024/02/29 09:04:16;;;;;;;10.65;4.55;;;;;;;3.34;62.38;99878.13;10509602;28;20058;-57
2024/02/29 09:09:20;;;;;;;13.55;5.22;;;;;;;3.79;62.33;99881.00;10508419;28;20408;-58
2024/02/29 09:14:22;;;;;;;11.30;5.57;;;;;;;4.31;61.12;99880.09;10514722;28;20048;-58
2024/02/29 09:19:24;;;;;;;15.25;5.90;;;;;;;4.58;60.58;99868.75;10517021;28;20134;-58
2024/02/29 09:24:26;;;;;;;59.90;6.22;;;;;;;4.87;60.05;99863.34;10480468;28;20610;-58
2024/02/29 09:29:28;;;;;;;17.85;5.70;;;;;;;5.16;60.26;99852.72;10514184;28;20602;-58
2024/02/29 09:34:37;;;;;;;10.63;5.80;;;;;;;5.37;59.72;99835.47;10513662;28;20051;-52
2024/02/29 09:39:45;;;;;;;12.23;6.68;;;;;;;5.45;59.91;99834.22;10512664;28;20680;-52
2024/02/29 09:44:47;;;;;;;9.95;4.78;;;;;;;5.60;59.75;99832.78;10482289;28;20055;-53
2024/02/29 09:49:51;;;;;;;11.38;5.70;;;;;;;5.85;59.85;99822.22;10488568;28;20044;-52
2024/02/29 09:55:04;;;;;;;11.05;5.75;;;;;;;6.39;59.04;99806.03;10510017;28;20198;-51
2024/02/29 10:00:10;;;;;;;13.90;7.20;;;;;;;6.58;58.20;99801.69;10512819;28;20198;-50
2024/02/29 10:05:13;;;;;;;12.70;6.35;;;;;;;6.49;58.39;99789.94;10512216;28;20071;-54
2024/02/29 10:10:16;;;;;;;12.05;5.80;;;;;;;6.71;57.82;99779.44;10512113;28;20293;-53
2024/02/29 10:15:19;;;;;;;16.33;6.57;;;;;;;6.82;57.78;99769.38;10505485;28;20382;-53
2024/02/29 10:20:22;;;;;;;15.48;6.82;;;;;;;6.94;57.63;99761.00;10512433;28;20046;-49
2024/02/29 10:25:26;;;;;;;13.80;6.97;;;;;;;7.13;57.75;99756.59;10524885;28;20052;-50
2024/02/29 10:30:29;;;;;;;21.13;7.18;;;;;;;7.34;57.63;99746.91;10493955;28;20288;-50
2024/02/29 10:35:32;;;;;;;13.48;6.78;;;;;;;7.72;57.23;99743.22;10506411;28;20109;-51
2024/02/29 10:40:34;;;;;;;10.55;5.32;;;;;;;8.13;57.07;99730.69;10511233;28;20482;-50
2024/02/29 10:45:45;;;;;;;14.32;6.93;;;;;;;8.44;55.90;99726.38;10513486;28;20048;-49
2024/02/29 10:51:15;;;;;;;13.98;6.78;;;;;;;8.51;55.16;99717.28;10511347;28;20040;-49
2024/02/29 10:56:23;;;;;;;13.90;5.90;;;;;;;9.17;55.41;99704.84;10486340;28;20173;-51
2024/02/29 11:01:29;;;;;;;15.37;7.00;;;;;;;9.44;55.39;99682.34;10508750;28;20453;-51
2024/02/29 11:06:43;;;;;;;12.13;5.75;;;;;;;9.59;52.55;99668.41;10490374;28;20048;-53
2024/02/29 11:11:47;;;;;;;13.15;6.32;;;;;;;9.70;54.56;99669.56;10508302;28;20052;-51
2024/02/29 11:16:49;;;;;;;12.43;5.43;;;;;;;9.90;53.82;99643.91;10510463;28;20048;-53
2024/02/29 11:21:51;;;;;;;12.63;6.35;;;;;;;10.01;53.92;99644.06;10511855;28;20665;-49
2024/02/29 11:26:58;;;;;;;9.63;5.55;;;;;;;10.08;52.43;99636.69;10509755;28;20050;-48
2024/02/29 11:32:00;;;;;;;11.93;5.60;;;;;;;10.26;52.45;99622.47;10512408;28;20035;-50
2024/02/29 11:37:05;;;;;;;10.80;5.20;;;;;;;10.31;50.36;99615.19;10512291;28;20050;-50
2024/02/29 11:42:08;;;;;;;9.73;5.38;;;;;;;10.54;51.11;99598.03;10511460;28;20059;-49
2024/02/29 11:47:10;;;;;;;9.32;4.78;;;;;;;10.63;50.96;99582.59;10511435;28;20080;-51
2024/02/29 11:52:13;;;;;;;10.20;4.75;;;;;;;10.55;50.46;99566.56;10492540;28;20137;-50
2024/02/29 11:57:16;;;;;;;11.85;5.18;;;;;;;10.59;48.32;99554.09;10511475;28;20562;-50
2024/02/29 12:02:19;;;;;;;9.75;4.32;;;;;;;10.76;49.78;99551.22;10510366;28;20066;-50
2024/02/29 12:07:21;;;;;;;9.70;4.43;;;;;;;11.03;48.56;99541.53;10510754;28;20078;-51
2024/02/29 12:12:23;;;;;;;6.93;3.88;;;;;;;11.17;48.41;99531.81;10509966;28;20527;-51
2024/02/29 12:17:26;;;;;;;9.82;3.97;;;;;;;11.20;47.87;99518.53;10522333;28;20797;-51
2024/02/29 12:22:31;;;;;;;9.77;3.80;;;;;;;11.35;47.78;99513.19;10481814;28;20563;-50
2024/02/29 12:27:34;;;;;;;5.32;2.80;;;;;;;11.30;46.93;99498.63;10488175;28;20086;-48
2024/02/29 12:32:36;;;;;;;8.30;3.85;;;;;;;11.38;45.00;99490.25;10489965;28;20052;-50
2024/02/29 12:37:40;;;;;;;8.23;3.65;;;;;;;11.58;46.04;99481.81;10507467;28;20339;-52
2024/02/29 12:42:42;;;;;;;7.13;3.25;;;;;;;11.69;46.22;99467.97;10489760;28;20306;-50
2024/02/29 12:47:45;;;;;;;6.88;3.42;;;;;;;11.66;46.07;99455.91;10486618;28;20066;-54
2024/02/29 12:52:53;;;;;;;7.25;3.40;;;;;;;11.46;45.37;99446.03;10504649;28;20126;-52
2024/02/29 12:57:56;;;;;;;5.93;3.38;;;;;;;11.56;45.00;99447.03;10487935;28;20161;-50
2024/02/29 13:02:58;;;;;;;5.60;3.15;;;;;;;11.47;43.92;99434.63;10506872;28;20055;-51
2024/02/29 13:08:02;;;;;;;6.75;3.30;;;;;;;11.39;44.11;99425.63;10507511;28;20559;-53
2024/02/29 13:13:07;;;;;;;7.30;3.45;;;;;;;11.23;43.54;99423.25;10506368;28;20067;-50
2024/02/29 13:18:12;;;;;;;6.22;3.22;;;;;;;11.22;43.35;99411.94;10488313;28;20547;-52
2024/02/29 13:23:17;;;;;;;5.45;2.85;;;;;;;11.24;43.66;99394.34;10506161;28;20824;-52
2024/02/29 13:28:20;;;;;;;6.88;3.65;;;;;;;11.21;43.81;99389.31;10506098;28;20111;-48
2024/02/29 13:33:23;;;;;;;8.50;4.03;;;;;;;11.36;43.46;99371.69;10505810;28;20052;-50
2024/02/29 13:38:27;;;;;;;8.43;3.67;;;;;;;11.48;42.16;99364.75;10504476;28;20168;-52
2024/02/29 13:43:29;;;;;;;8.27;2.95;;;;;;;11.54;41.99;99344.19;10487413;28;20411;-50
2024/02/29 13:48:31;;;;;;;7.22;3.00;;;;;;;11.59;42.42;99336.84;10503062;28;20871;-51
2024/02/29 13:53:33;;;;;;;4.63;2.28;;;;;;;11.78;41.63;99328.47;10502216;28;20048;-54
2024/02/29 13:58:36;;;;;;;4.28;2.40;;;;;;;11.81;40.62;99330.84;10508781;28;20040;-54
2024/02/29 14:03:38;;;;;;;5.53;2.00;;;;;;;11.63;40.60;99324.34;10512746;28;20050;-53
2024/02/29 14:08:40;;;;;;;6.13;2.78;;;;;;;11.68;40.66;99317.00;10510847;28;20056;-53
2024/02/29 14:13:42;;;;;;;4.15;2.05;;;;;;;11.66;39.43;99305.78;10497316;28;20052;-49
2024/02/29 14:18:44;;;;;;;4.90;1.85;;;;;;;11.69;38.99;99295.06;10515988;28;20059;-53
2024/02/29 14:23:46;;;;;;;4.15;2.22;;;;;;;11.52;38.30;99287.66;10512837;28;20040;-49
2024/02/29 14:28:51;;;;;;;4.10;2.00;;;;;;;11.41;38.79;99290.22;10515139;28;20043;-48
2024/02/29 14:33:53;;;;;;;3.97;1.90;;;;;;;11.32;38.92;99274.22;10513835;28;20151;-49
2024/02/29 14:38:55;;;;;;;4.97;2.15;;;;;;;11.43;39.42;99262.13;10495551;28;20058;-50
2024/02/29 14:44:02;;;;;;;4.57;2.33;;;;;;;11.51;38.99;99255.38;10499541;28;20298;-48
2024/02/29 14:49:05;;;;;;;2.47;1.52;;;;;;;11.63;38.81;99248.38;10430381;28;20135;-49
2024/02/29 14:54:07;;;;;;;4.13;1.85;;;;;;;11.69;38.96;99242.69;10427914;28;20044;-50
2024/02/29 14:59:10;;;;;;;3.75;1.70;;;;;;;11.59;38.66;99233.84;10430767;28;20053;-50
2024/02/29 15:04:12;;;;;;;3.40;1.75;;;;;;;11.40;38.60;99229.16;10430303;28;20057;-50
2024/02/29 15:09:17;;;;;;;3.17;1.65;;;;;;;11.21;38.20;99219.19;10428447;28;20095;-50
2024/02/29 15:14:21;;;;;;;3.28;2.20;;;;;;;10.95;37.89;99217.63;10429493;28;20041;-48
2024/02/29 15:19:26;;;;;;;3.17;1.55;;;;;;;10.81;38.55;99206.47;10460557;28;20110;-48
2024/02/29 15:24:31;;;;;;;3.92;2.03;;;;;;;10.81;38.29;99209.09;10427444;28;20128;-50
2024/02/29 15:29:35;;;;;;;3.83;1.73;;;;;;;10.62;38.16;99200.91;10429491;28;20439;-51
2024/02/29 15:34:41;;;;;;;4.35;1.67;;;;;;;10.39;38.18;99194.69;10425018;28;20041;-53
2024/02/29 15:39:46;;;;;;;2.92;1.50;;;;;;;10.30;38.22;99177.88;10424683;28;20053;-51
2024/02/29 15:44:48;;;;;;;2.97;1.63;;;;;;;10.43;37.90;99180.47;10425717;28;20370;-50
2024/02/29 15:49:50;;;;;;;5.43;2.28;;;;;;;10.59;37.94;99181.03;10427228;28;20072;-54
2024/02/29 15:54:53;;;;;;;5.13;2.42;;;;;;;10.62;38.18;99175.59;10428313;28;20102;-49
2024/02/29 15:59:59;;;;;;;4.13;2.42;;;;;;;10.58;38.54;99163.69;10428051;28;20059;-51
2024/02/29 16:05:17;;;;;;;5.75;2.30;;;;;;;10.49;38.70;99165.19;10426962;28;20056;-52
2024/02/29 16:10:20;;;;;;;6.05;2.60;;;;;;;10.31;39.21;99171.72;10426246;28;20053;-52
2024/02/29 16:15:27;;;;;;;6.53;3.10;;;;;;;10.13;39.99;99175.63;10426720;28;20053;-49
2024/02/29 16:20:29;;;;;;;9.63;3.83;;;;;;;10.01;40.58;99173.84;10425868;28;20447;-53
2024/02/29 16:25:32;;;;;;;6.03;3.20;;;;;;;9.85;41.17;99161.97;10427846;28;20053;-49
2024/02/29 16:30:37;;;;;;;8.07;3.47;;;;;;;9.65;41.72;99161.50;10428933;28;20048;-49
2024/02/29 16:35:53;;;;;;;8.40;3.35;;;;;;;9.47;42.21;99162.75;10421162;28;20045;-49
2024/02/29 16:40:59;;;;;;;6.13;2.90;;;;;;;9.22;42.80;99165.31;10427151;28;20040;-51
2024/02/29 16:46:02;;;;;;;7.45;3.10;;;;;;;8.98;43.17;99166.09;10426917;28;20063;-53
2024/02/29 16:51:09;;;;;;;7.43;3.33;;;;;;;8.78;43.53;99156.97;10426042;28;20068;-53
2024/02/29 16:56:15;;;;;;;7.68;3.45;;;;;;;8.58;44.02;99170.44;10425148;28;20106;-54
2024/02/29 17:01:20;;;;;;;8.52;3.72;;;;;;;8.31;44.54;99162.59;10426539;28;20053;-53
2024/02/29 17:06:29;;;;;;;7.00;3.50;;;;;;;8.16;44.69;99163.53;10424972;28;20385;-54
2024/02/29 17:11:33;;;;;;;9.38;4.28;;;;;;;8.01;45.25;99167.94;10424613;28;20068;-50
2024/02/29 17:16:35;;;;;;;11.18;4.47;;;;;;;7.87;45.23;99167.94;10425953;28;20051;-51
2024/02/29 17:21:41;;;;;;;8.48;3.63;;;;;;;7.82;45.25;99163.91;10426045;28;20147;-53
2024/02/29 17:26:50;;;;;;;9.85;3.90;;;;;;;7.78;45.36;99159.81;10426719;28;20055;-50
2024/02/29 17:32:00;;;;;;;8.10;3.90;;;;;;;7.68;45.57;99161.31;10425454;28;20048;-48
2024/02/29 17:37:02;;;;;;;7.78;3.20;;;;;;;7.54;45.87;99156.94;10433462;28;20444;-49
2024/02/29 17:42:06;;;;;;;8.68;4.20;;;;;;;7.41;46.50;99155.97;10430845;28;20051;-53
2024/02/29 17:47:15;;;;;;;9.57;4.57;;;;;;;7.42;46.64;99162.03;10429703;28;20053;-52
2024/02/29 17:52:17;;;;;;;8.07;3.88;;;;;;;7.40;46.80;99146.50;10433319;28;20045;-50
2024/02/29 17:57:22;;;;;;;8.27;4.18;;;;;;;7.29;47.09;99148.91;10429486;28;20501;-52
2024/02/29 18:02:27;;;;;;;8.00;4.22;;;;;;;7.25;47.29;99143.97;10432575;28;20103;-54
2024/02/29 18:07:31;;;;;;;11.13;4.55;;;;;;;7.14;47.57;99150.63;10431451;28;20057;-49
2024/02/29 18:12:38;;;;;;;7.30;4.13;;;;;;;7.05;47.87;99145.13;10432857;28;20055;-52
2024/02/29 18:17:43;;;;;;;8.05;3.90;;;;;;;6.84;47.91;99139.41;10430226;28;20107;-48
2024/02/29 18:22:48;;;;;;;9.85;4.60;;;;;;;6.70;48.16;99138.50;10433072;28;20045;-51
2024/02/29 18:27:58;;;;;;;8.55;3.72;;;;;;;6.62;48.41;99138.09;10430772;28;20053;-52
2024/02/29 18:33:01;;;;;;;9.38;4.72;;;;;;;6.40;48.69;99141.06;10432502;28;20045;-52
2024/02/29 18:38:09;;;;;;;7.32;3.70;;;;;;;6.29;49.12;99133.00;10429371;28;20048;-54
2024/02/29 18:43:17;;;;;;;8.73;3.78;;;;;;;6.27;49.20;99122.72;10444996;28;20140;-53
2024/02/29 18:48:20;;;;;;;10.30;4.70;;;;;;;6.14;49.43;99119.06;10429762;28;20071;-54
2024/02/29 18:53:26;;;;;;;9.55;4.78;;;;;;;6.01;50.09;99110.28;10429958;28;20055;-54
2024/02/29 18:58:29;;;;;;;11.82;4.65;;;;;;;5.96;50.08;99111.47;10428212;28;20048;-49
2024/02/29 19:03:32;;;;;;;14.13;5.15;;;;;;;5.83;50.39;99102.66;10425496;28;20053;-51
2024/02/29 19:08:35;;;;;;;9.60;5.13;;;;;;;5.64;51.16;99102.78;10428697;28;20588;-52
2024/02/29 19:13:37;;;;;;;9.40;4.28;;;;;;;5.51;51.65;99107.78;10431339;28;20043;-50
2024/02/29 19:18:40;;;;;;;9.00;4.72;;;;;;;5.46;51.66;99109.78;10429464;28;20060;-53
2024/02/29 19:23:42;;;;;;;12.60;5.55;;;;;;;5.45;51.90;99094.31;10429248;28;20147;-49
2024/02/29 19:28:44;;;;;;;10.00;5.20;;;;;;;5.38;52.30;99095.53;10425678;28;20072;-51
2024/02/29 19:33:47;;;;;;;9.20;5.10;;;;;;;5.24;52.71;99098.84;10424964;28;20505;-49
2024/02/29 19:38:49;;;;;;;11.50;5.82;;;;;;;5.26;52.84;99085.81;10424096;28;20040;-58
2024/02/29 19:43:51;;;;;;;10.40;4.05;;;;;;;5.21;53.05;99070.47;10427462;28;20579;-60
2024/02/29 19:48:54;;;;;;;9.52;4.40;;;;;;;5.17;53.41;99062.94;10428588;28;20051;-59
2024/02/29 19:53:56;;;;;;;10.85;5.03;;;;;;;4.97;53.38;99058.78;10430630;28;20062;-58
2024/02/29 19:58:58;;;;;;;9.40;4.03;;;;;;;4.87;53.67;99051.56;10428072;28;20068;-58
2024/02/29 20:04:00;;;;;;;9.85;5.20;;;;;;;4.78;53.99;99049.44;10426764;28;20049;-58
2024/02/29 20:09:04;;;;;;;9.18;4.43;;;;;;;4.72;54.28;99038.47;10420256;28;20068;-58
2024/02/29 20:14:06;;;;;;;11.10;4.38;;;;;;;4.63;54.48;99033.75;10415819;28;20044;-57
2024/02/29 20:19:09;;;;;;;10.77;4.70;;;;;;;4.53;54.75;99048.06;10418089;28;20332;-58
2024/02/29 20:24:12;;;;;;;10.70;4.15;;;;;;;4.39;54.75;99042.69;10418623;28;20057;-58
2024/02/29 20:29:15;;;;;;;11.27;5.35;;;;;;;4.29;55.35;99048.44;10434007;28;20048;-57
2024/02/29 20:34:17;;;;;;;11.82;5.63;;;;;;;4.25;55.31;99045.13;10402669;28;20095;-58
2024/02/29 20:39:19;;;;;;;24.35;5.90;;;;;;;4.22;55.53;99044.44;10413492;28;20120;-60
2024/02/29 20:44:21;;;;;;;7.22;3.80;;;;;;;4.19;55.52;99048.00;10419984;28;20099;-57
2024/02/29 20:49:23;;;;;;;8.18;4.63;;;;;;;4.14;55.67;99044.81;10452148;28;20053;-58
2024/02/29 20:54:28;;;;;;;8.63;3.97;;;;;;;3.96;55.75;99034.50;10425044;28;20052;-58
2024/02/29 20:59:31;;;;;;;9.98;4.30;;;;;;;3.81;56.05;99031.69;10423493;28;20041;-58
2024/02/29 21:04:33;;;;;;;7.88;4.00;;;;;;;3.80;56.15;99030.00;10408097;28;20080;-58
2024/02/29 21:09:35;;;;;;;7.80;3.92;;;;;;;3.75;56.19;99023.38;10428871;28;20106;-58
2024/02/29 21:14:38;;;;;;;7.10;4.45;;;;;;;3.68;56.60;99022.81;10433789;28;20041;-58
2024/02/29 21:19:40;;;;;;;9.10;4.95;;;;;;;3.62;56.69;99020.50;10430054;28;20079;-58
2024/02/29 21:24:44;;;;;;;13.73;5.68;;;;;;;3.60;56.71;99011.16;10433389;28;20556;-58
2024/02/29 21:29:46;;;;;;;9.15;4.53;;;;;;;3.53;56.99;99010.59;10431924;28;20061;-59
2024/02/29 21:34:48;;;;;;;10.63;4.75;;;;;;;3.49;57.16;99006.50;10432963;28;20033;-58
2024/02/29 21:39:51;;;;;;;10.85;5.90;;;;;;;3.43;57.26;99006.78;10432563;28;20052;-58
2024/02/29 21:44:53;;;;;;;9.13;4.20;;;;;;;3.38;57.27;99013.03;10429173;28;20807;-58
2024/02/29 21:49:56;;;;;;;7.38;4.03;;;;;;;3.28;57.48;99006.59;10432130;28;20051;-58
2024/02/29 21:54:58;;;;;;;11.38;4.65;;;;;;;3.14;57.52;99001.22;10432874;28;20040;-58
2024/02/29 22:00:02;;;;;;;11.23;4.63;;;;;;;2.96;57.55;98993.38;10427963;28;20041;-57
2024/02/29 22:05:13;;;;;;;7.75;3.42;;;;;;;2.89;58.16;98997.13;10432845;28;20057;-58
2024/02/29 22:10:16;;;;;;;14.07;4.95;;;;;;;2.96;58.32;99003.72;10428309;28;20136;-58
2024/02/29 22:15:19;;;;;;;10.90;4.65;;;;;;;2.92;58.25;98991.84;10427136;28;20567;-58
2024/02/29 22:20:22;;;;;;;8.80;4.78;;;;;;;2.90;58.59;99000.56;10428579;28;20049;-58
2024/02/29 22:25:25;;;;;;;8.63;4.25;;;;;;;2.92;58.68;98996.16;10430637;28;20142;-57
2024/02/29 22:30:29;;;;;;;8.38;4.75;;;;;;;2.76;58.39;98979.66;10428681;28;20152;-58
2024/02/29 22:35:32;;;;;;;9.05;4.78;;;;;;;2.68;58.84;98982.56;10431391;28;20055;-58
2024/02/29 22:40:35;;;;;;;8.05;4.30;;;;;;;2.72;58.94;98980.69;10431346;28;20049;-57
2024/02/29 22:45:38;;;;;;;11.93;5.22;;;;;;;2.71;58.69;98985.03;10429119;28;20059;-58
2024/02/29 22:50:40;;;;;;;13.43;5.53;;;;;;;2.69;58.76;98979.09;10422881;28;20070;-59
2024/02/29 22:55:42;;;;;;;14.85;4.95;;;;;;;2.58;58.82;98976.09;10431303;28;20057;-57
2024/02/29 23:00:47;;;;;;;11.13;5.00;;;;;;;2.54;59.06;98974.56;10428326;28;20404;-57
2024/02/29 23:05:55;;;;;;;9.15;4.07;;;;;;;2.52;59.18;98971.22;10431503;28;20053;-57
2024/02/29 23:10:57;;;;;;;9.00;4.50;;;;;;;2.45;58.99;98967.22;10424748;28;20049;-58
2024/02/29 23:16:00;;;;;;;22.65;6.35;;;;;;;2.39;59.15;98969.22;10426074;28;20563;-58
2024/02/29 23:21:02;;;;;;;8.25;4.28;;;;;;;2.22;59.65;98957.88;10395753;28;20044;-57
2024/02/29 23:26:04;;;;;;;9.60;4.68;;;;;;;2.21;59.55;98948.44;10429877;28;20485;-57
2024/02/29 23:31:06;;;;;;;8.23;4.13;;;;;;;2.23;59.70;98940.66;10439372;28;20052;-57
2024/02/29 23:36:08;;;;;;;9.57;4.85;;;;;;;2.26;59.79;98948.25;10424925;28;20136;-57